Time;durP1;ratioP1;P1;durP2;ratioP2;P2;SDS_P1;SDS_P2;PMS_P1;PMS_P2;Temp;Humidity;BMP_temperature;BMP_pressure;BME280_temperature;BME280_humidity;BME280_pressure;Samples;Min_cycle;Max_cycle;Signal;HPM_P1;HPM_P2
2022/09/24 00:02:23;;;;;;;36.95;18.20;;;;;;;28.43;68.23;100718.19;5072055;28;70265;-38
2022/09/24 00:04:56;;;;;;;29.35;16.08;;;;;;;28.40;69.40;100701.56;5074717;28;67721;-37
2022/09/24 00:07:29;;;;;;;26.15;14.13;;;;;;;28.58;67.91;100719.84;5074981;28;70830;-39
2022/09/24 00:10:02;;;;;;;13.73;12.32;;;;;;;28.58;71.35;100731.44;5075646;27;66782;-38
2022/09/24 00:12:34;;;;;;;14.05;12.20;;;;;;;28.62;71.34;100729.19;5076439;27;69678;-40
2022/09/24 00:15:07;;;;;;;13.50;10.85;;;;;;;28.70;73.79;100745.16;5077200;28;66048;-39
2022/09/24 00:17:40;;;;;;;18.25;10.65;;;;;;;28.61;72.72;100724.81;5070841;28;69765;-38
2022/09/24 00:20:12;;;;;;;28.83;18.25;;;;;;;28.77;74.27;100751.38;5077013;28;67075;-39
2022/09/24 00:22:45;;;;;;;22.98;17.35;;;;;;;28.69;72.97;100730.00;5075273;28;71230;-38
2022/09/24 00:28:08;;;;;;;22.63;13.00;;;;;;;28.82;73.47;100753.47;5074887;28;69910;-38
2022/09/24 00:30:42;;;;;;;17.80;12.27;;;;;;;28.83;73.03;100766.72;5064131;28;66301;-37
2022/09/24 00:33:15;;;;;;;13.10;11.13;;;;;;;28.85;73.41;100766.53;5079513;28;70066;-40
2022/09/24 00:35:47;;;;;;;11.98;10.18;;;;;;;28.87;72.64;100773.38;5076787;28;67184;-38
2022/09/24 00:38:20;;;;;;;11.10;9.98;;;;;;;28.86;72.88;100771.75;5074822;28;70722;-38
2022/09/24 00:40:52;;;;;;;11.85;10.48;;;;;;;28.90;72.66;100777.53;5076212;28;66163;-38
2022/09/24 00:43:35;;;;;;;11.05;10.05;;;;;;;28.87;72.59;100778.78;5069971;28;70094;-38
2022/09/24 00:46:31;;;;;;;13.02;10.75;;;;;;;28.90;72.28;100783.78;5071810;27;67009;-37
2022/09/24 00:49:21;;;;;;;14.82;9.93;;;;;;;28.77;72.74;100778.38;5079952;27;70399;-37
2022/09/24 00:51:53;;;;;;;10.35;9.25;;;;;;;28.96;72.24;100792.91;5076898;28;66748;-39
2022/09/24 00:54:28;;;;;;;9.05;8.20;;;;;;;29.00;73.75;100798.69;5072603;27;69779;-38
2022/09/24 00:57:01;;;;;;;8.68;7.75;;;;;;;29.12;73.22;100806.00;5074799;27;66396;-39
2022/09/24 00:59:34;;;;;;;15.23;7.80;;;;;;;29.05;75.11;100786.25;5074944;28;70907;-39
2022/09/24 01:02:07;;;;;;;9.27;8.48;;;;;;;29.26;74.98;100814.09;5051754;28;66882;-37
2022/09/24 01:04:40;;;;;;;7.85;7.30;;;;;;;29.31;74.41;100815.13;5072354;28;70741;-36
2022/09/24 01:07:12;;;;;;;10.95;7.50;;;;;;;29.29;75.78;100806.38;5075637;27;66485;-39
2022/09/24 01:09:45;;;;;;;8.88;8.00;;;;;;;29.44;73.86;100816.13;5078211;28;70860;-36
2022/09/24 01:12:57;;;;;;;12.45;8.15;;;;;;;29.43;76.46;100827.97;5077594;28;66728;-35
2022/09/24 01:15:36;;;;;;;;;;;;;;;29.27;77.02;100832.78;5078974;28;69304;-36
2022/09/24 01:18:37;;;;;;;8.18;7.45;;;;;;;29.46;75.98;100836.47;5074235;27;66253;-36
2022/09/24 01:21:46;;;;;;;9.87;7.23;;;;;;;29.54;76.37;100840.84;5059676;28;70662;-39
2022/09/24 01:24:46;;;;;;;7.78;7.00;;;;;;;29.72;72.11;100841.00;5065847;28;66979;-37
2022/09/24 01:27:29;;;;;;;9.50;8.18;;;;;;;29.81;70.63;100837.03;5080299;27;70985;-37
2022/09/24 01:30:07;;;;;;;14.65;8.27;;;;;;;29.32;70.66;100754.63;5075203;27;66790;-37
2022/09/24 01:32:51;;;;;;;10.45;7.38;;;;;;;29.38;70.58;100761.88;5076941;28;70496;-38
2022/09/24 01:35:46;;;;;;;8.18;7.35;;;;;;;29.52;70.07;100786.16;5080833;27;67334;-37
2022/09/24 01:38:28;;;;;;;7.50;6.80;;;;;;;29.41;69.98;100741.69;5071175;28;70713;-39
2022/09/24 01:41:03;;;;;;;12.38;6.57;;;;;;;29.93;70.17;100836.34;5079687;27;66267;-36
2022/09/24 01:43:38;;;;;;;7.10;6.50;;;;;;;30.06;70.69;100847.94;5078847;28;70686;-36
2022/09/24 01:46:11;;;;;;;9.75;6.85;;;;;;;29.80;70.42;100789.38;5069364;28;66572;-37
2022/09/24 01:48:45;;;;;;;10.43;6.97;;;;;;;30.13;70.00;100842.50;5078821;28;70998;-36
2022/09/24 01:51:48;;;;;;;6.82;6.15;;;;;;;30.11;70.12;100841.03;5080014;28;66635;-37
2022/09/24 01:54:28;;;;;;;6.68;6.05;;;;;;;29.66;70.44;100760.75;5070567;28;70912;-38
2022/09/24 01:57:12;;;;;;;9.90;6.40;;;;;;;30.24;70.11;100865.38;5064743;28;66950;-38
2022/09/24 01:59:59;;;;;;;6.88;6.18;;;;;;;30.10;70.00;100848.34;5067492;28;70687;-36
2022/09/24 02:02:48;;;;;;;10.23;6.00;;;;;;;30.31;70.09;100859.91;5078796;27;66736;-38
2022/09/24 02:05:39;;;;;;;6.85;6.18;;;;;;;30.35;70.04;100850.31;5076875;28;70814;-39
2022/09/24 02:08:17;;;;;;;6.35;5.78;;;;;;;30.38;70.43;100860.69;5079820;27;66309;-36
2022/09/24 02:11:01;;;;;;;8.60;6.20;;;;;;;30.37;70.53;100850.91;5081223;27;70601;-36
2022/09/24 02:13:42;;;;;;;7.10;6.50;;;;;;;30.45;69.88;100864.19;5080091;28;66937;-37
2022/09/24 02:16:20;;;;;;;7.75;6.63;;;;;;;30.42;70.41;100845.69;5081203;27;70760;-39
2022/09/24 02:18:57;;;;;;;7.95;7.15;;;;;;;30.41;70.03;100834.03;5052535;28;66747;-37
2022/09/24 02:21:32;;;;;;;8.77;7.03;;;;;;;30.19;70.17;100809.16;5076357;27;70449;-39
2022/09/24 02:24:16;;;;;;;7.53;6.93;;;;;;;30.48;70.06;100855.66;5083464;28;66725;-36
2022/09/24 02:26:49;;;;;;;11.07;6.88;;;;;;;30.51;70.08;100857.91;5080431;28;70674;-37
2022/09/24 02:29:22;;;;;;;7.55;6.60;;;;;;;30.59;70.26;100862.22;5080610;28;66756;-38
2022/09/24 02:31:57;;;;;;;7.70;6.50;;;;;;;30.59;69.89;100851.38;5081925;28;71227;-37
2022/09/24 02:34:42;;;;;;;8.18;6.68;;;;;;;29.69;69.95;100713.53;5073221;27;66064;-37
2022/09/24 02:37:15;;;;;;;7.65;6.95;;;;;;;30.67;70.41;100848.41;5074654;28;71162;-36
2022/09/24 02:39:49;;;;;;;7.82;7.22;;;;;;;30.68;70.58;100845.50;5080590;28;66962;-37
2022/09/24 02:42:22;;;;;;;9.45;6.60;;;;;;;30.41;69.86;100795.31;5066678;28;70429;-38
2022/09/24 02:44:56;;;;;;;7.63;6.55;;;;;;;30.71;70.09;100833.41;5077367;28;66571;-37
2022/09/24 02:47:28;;;;;;;7.60;6.32;;;;;;;30.79;70.16;100851.28;5075927;28;70880;-36
2022/09/24 02:50:01;;;;;;;10.43;7.30;;;;;;;30.72;70.19;100833.16;5078397;28;66774;-37
2022/09/24 02:52:34;;;;;;;7.18;6.53;;;;;;;30.77;70.02;100832.53;5077744;28;71324;-36
2022/09/24 02:55:07;;;;;;;7.30;6.70;;;;;;;30.72;69.85;100819.63;5077779;28;66852;-37
2022/09/24 02:57:40;;;;;;;7.85;6.97;;;;;;;30.86;69.56;100835.81;5073641;28;70898;-39
2022/09/24 03:00:13;;;;;;;7.18;6.47;;;;;;;30.88;69.70;100833.72;5080891;27;66603;-38
2022/09/24 03:02:46;;;;;;;6.93;6.20;;;;;;;30.90;69.51;100832.44;5074534;28;71053;-38
2022/09/24 03:05:20;;;;;;;7.95;6.65;;;;;;;30.93;69.92;100826.59;5074642;28;66446;-37
2022/09/24 03:07:53;;;;;;;6.90;6.38;;;;;;;30.96;69.94;100825.31;5081370;27;70693;-38
2022/09/24 03:10:26;;;;;;;6.55;5.95;;;;;;;30.98;70.02;100825.94;5080367;27;66861;-38
2022/09/24 03:12:59;;;;;;;7.20;6.47;;;;;;;31.01;70.05;100822.78;5076051;28;70757;-37
2022/09/24 03:15:31;;;;;;;7.13;6.50;;;;;;;30.57;69.53;100746.06;5079011;27;66075;-38
2022/09/24 03:18:04;;;;;;;7.95;6.10;;;;;;;31.06;69.97;100820.19;5079531;28;70747;-39
2022/09/24 03:20:36;;;;;;;6.53;6.00;;;;;;;31.07;69.40;100800.19;5074992;28;66629;-35
2022/09/24 03:23:09;;;;;;;7.60;6.90;;;;;;;30.98;69.70;100779.88;5078289;27;70422;-36
2022/09/24 03:25:42;;;;;;;8.52;6.57;;;;;;;30.97;69.02;100772.78;5080930;27;66904;-38
2022/09/24 03:28:15;;;;;;;9.73;6.95;;;;;;;31.16;69.57;100798.84;5082657;28;70099;-39
2022/09/24 03:31:01;;;;;;;8.57;5.90;;;;;;;31.21;69.31;100797.38;5068209;27;67018;-38
2022/09/24 03:33:42;;;;;;;10.18;5.90;;;;;;;31.22;68.99;100796.28;5071267;28;70734;-38
2022/09/24 03:36:24;;;;;;;8.63;6.57;;;;;;;30.70;70.10;100737.81;5079677;28;68397;-40
2022/09/24 03:38:57;;;;;;;;;;;;;;;30.72;71.86;100797.97;5072221;28;70671;-37
2022/09/24 03:41:29;;;;;;;6.75;6.18;;;;;;;30.88;71.88;100795.78;5072975;28;67161;-41
2022/09/24 03:44:02;;;;;;;7.53;6.78;;;;;;;30.84;71.93;100781.03;5080645;28;70043;-37
2022/09/24 03:46:34;;;;;;;7.00;6.40;;;;;;;30.86;72.41;100787.06;5062980;28;66019;-38
2022/09/24 03:49:07;;;;;;;8.20;7.03;;;;;;;30.85;72.23;100786.22;5077292;27;70112;-39
2022/09/24 03:51:39;;;;;;;6.25;5.85;;;;;;;30.80;72.07;100777.13;5075107;27;66873;-39
2022/09/24 03:54:12;;;;;;;6.55;5.93;;;;;;;30.82;72.43;100769.63;5067133;28;70686;-40
2022/09/24 03:56:44;;;;;;;7.35;6.22;;;;;;;30.68;72.53;100753.44;5079710;28;66526;-39
2022/09/24 03:59:17;;;;;;;7.00;6.32;;;;;;;30.77;72.48;100758.59;5076360;28;70662;-41
2022/09/24 04:01:49;;;;;;;6.13;5.68;;;;;;;30.76;72.79;100759.63;5073168;28;66710;-41
2022/09/24 04:04:22;;;;;;;5.88;5.47;;;;;;;30.85;72.82;100775.41;5076522;28;70818;-44
2022/09/24 04:06:54;;;;;;;6.40;5.63;;;;;;;30.87;72.86;100769.75;5075510;27;66533;-41
2022/09/24 04:09:27;;;;;;;5.80;5.20;;;;;;;30.76;72.54;100749.63;5080522;28;71003;-41
2022/09/24 04:12:00;;;;;;;5.90;5.40;;;;;;;30.90;72.38;100762.03;5081228;28;67145;-42
2022/09/24 04:14:32;;;;;;;5.72;5.10;;;;;;;30.89;72.38;100760.34;5076957;28;70341;-49
2022/09/24 04:17:05;;;;;;;9.48;5.78;;;;;;;30.79;71.94;100742.94;5075169;28;66298;-51
2022/09/24 04:19:38;;;;;;;5.97;5.47;;;;;;;30.93;71.90;100755.34;5074251;28;70844;-49
2022/09/24 04:22:11;;;;;;;5.80;5.30;;;;;;;30.93;71.88;100750.75;5079362;28;66754;-49
2022/09/24 04:24:43;;;;;;;5.50;4.65;;;;;;;30.93;71.69;100747.22;5077942;28;70289;-47
2022/09/24 04:27:16;;;;;;;7.18;5.90;;;;;;;30.91;72.37;100741.19;5079234;27;66431;-49
2022/09/24 04:29:48;;;;;;;6.97;5.82;;;;;;;30.90;72.28;100736.81;5076715;28;69936;-50
2022/09/24 04:32:21;;;;;;;7.63;6.95;;;;;;;30.96;72.25;100744.03;5075172;28;66955;-49
2022/09/24 04:34:53;;;;;;;9.10;8.20;;;;;;;31.00;72.18;100737.13;5076613;27;70140;-48
2022/09/24 04:37:26;;;;;;;9.55;8.27;;;;;;;30.89;72.15;100713.47;5076160;28;67028;-50
2022/09/24 04:39:59;;;;;;;14.02;8.63;;;;;;;30.96;72.28;100710.72;5078174;28;70619;-52
2022/09/24 04:42:31;;;;;;;14.05;8.63;;;;;;;31.03;72.67;100727.72;5075601;28;66187;-49
2022/09/24 04:45:09;;;;;;;13.35;8.27;;;;;;;31.04;72.61;100719.38;5077340;28;70716;-50
2022/09/24 04:47:41;;;;;;;10.50;7.60;;;;;;;31.01;72.50;100705.44;5074318;28;66147;-51
2022/09/24 04:50:14;;;;;;;11.32;8.23;;;;;;;31.09;72.41;100703.28;5074183;27;70836;-52
2022/09/24 04:52:47;;;;;;;16.90;8.27;;;;;;;31.07;72.49;100708.09;5077959;28;66729;-50
2022/09/24 04:55:20;;;;;;;12.23;8.77;;;;;;;31.06;72.67;100695.56;5062279;28;70294;-50
2022/09/24 04:57:55;;;;;;;13.55;7.38;;;;;;;31.11;72.39;100687.59;5076842;28;66726;-49
2022/09/24 05:00:32;;;;;;;11.93;8.30;;;;;;;31.11;72.94;100682.19;5073458;27;70891;-49
2022/09/24 05:03:05;;;;;;;14.82;8.13;;;;;;;31.12;72.82;100666.75;5074610;28;66983;-50
2022/09/24 05:05:38;;;;;;;11.52;7.70;;;;;;;31.24;71.31;100653.28;5077791;28;71370;-51
2022/09/24 05:08:10;;;;;;;7.93;6.50;;;;;;;31.38;70.88;100661.03;5067087;28;67013;-50
2022/09/24 05:10:42;;;;;;;10.82;6.05;;;;;;;31.46;70.83;100659.91;5076246;28;70200;-50
2022/09/24 05:13:15;;;;;;;7.85;6.88;;;;;;;31.51;70.57;100642.91;5071414;27;66271;-50
2022/09/24 05:15:47;;;;;;;12.48;6.30;;;;;;;31.58;70.18;100644.47;5070271;27;70740;-52
2022/09/24 05:18:20;;;;;;;8.18;5.95;;;;;;;31.60;70.26;100646.97;5065623;28;66656;-50
2022/09/24 05:20:53;;;;;;;10.63;7.25;;;;;;;31.45;70.87;100655.50;5068021;28;70808;-50
2022/09/24 05:23:26;;;;;;;7.20;6.50;;;;;;;31.26;71.77;100645.72;5071995;28;67032;-50
2022/09/24 05:28:49;;;;;;;9.25;6.18;;;;;;;31.24;70.78;100640.56;5074442;27;66256;-41
2022/09/24 05:31:22;;;;;;;6.30;5.70;;;;;;;31.05;69.40;100623.50;5080318;28;70837;-42
2022/09/24 05:33:54;;;;;;;8.88;5.10;;;;;;;31.04;68.87;100627.28;5080148;27;67030;-45
2022/09/24 05:36:27;;;;;;;7.57;4.80;;;;;;;30.92;68.30;100615.53;5078702;27;70240;-42
2022/09/24 05:39:00;;;;;;;6.47;4.78;;;;;;;30.91;67.34;100622.81;5073674;27;66865;-42
2022/09/24 05:41:33;;;;;;;8.50;5.43;;;;;;;30.82;67.20;100607.94;5077409;27;70665;-40
2022/09/24 05:44:06;;;;;;;4.40;4.00;;;;;;;30.84;67.31;100605.00;5076980;27;66648;-40
2022/09/24 05:46:38;;;;;;;4.78;4.38;;;;;;;30.71;65.91;100589.72;5076342;27;69494;-41
2022/09/24 05:49:11;;;;;;;7.75;5.13;;;;;;;30.69;64.96;100592.63;5068062;28;67094;-42
2022/09/24 05:51:46;;;;;;;3.97;3.58;;;;;;;30.67;64.41;100581.22;5073581;27;71181;-41
2022/09/24 05:54:19;;;;;;;6.50;3.25;;;;;;;30.64;63.39;100578.13;5077951;28;66527;-40
2022/09/24 05:56:51;;;;;;;7.20;3.75;;;;;;;30.58;62.35;100569.03;5077918;28;70708;-42
2022/09/24 05:59:24;;;;;;;3.80;3.50;;;;;;;30.61;62.08;100565.88;5075835;27;65968;-39
2022/09/24 06:01:56;;;;;;;3.50;3.15;;;;;;;30.42;61.68;100529.88;5077625;27;70741;-39
2022/09/24 06:04:30;;;;;;;5.78;3.20;;;;;;;30.56;60.97;100560.31;5079079;27;66106;-40
2022/09/24 06:07:05;;;;;;;11.18;3.70;;;;;;;30.59;60.30;100557.16;5086178;27;70523;-40
2022/09/24 06:09:37;;;;;;;4.65;3.42;;;;;;;30.57;59.92;100548.44;5079090;28;66339;-40
2022/09/24 06:12:10;;;;;;;4.88;3.15;;;;;;;30.60;60.33;100534.44;5072724;28;70234;-40
2022/09/24 06:14:43;;;;;;;4.32;3.13;;;;;;;30.57;58.86;100537.59;5074148;28;66367;-43
2022/09/24 06:17:15;;;;;;;2.63;2.42;;;;;;;30.58;58.19;100544.66;5075119;28;69915;-39
2022/09/24 06:19:48;;;;;;;2.95;2.75;;;;;;;30.60;57.96;100525.50;5076349;27;67094;-38
2022/09/24 06:22:20;;;;;;;3.58;3.00;;;;;;;30.49;58.77;100508.13;5076074;28;70184;-40
2022/09/24 06:24:58;;;;;;;2.97;2.78;;;;;;;30.60;57.62;100504.66;5075774;27;66244;-40
2022/09/24 06:27:31;;;;;;;2.90;2.67;;;;;;;30.66;58.52;100484.81;5077826;27;70880;-42
2022/09/24 06:30:04;;;;;;;3.47;2.90;;;;;;;30.65;56.92;100477.75;5052897;28;67114;-41
2022/09/24 06:32:37;;;;;;;2.50;2.00;;;;;;;30.65;56.75;100472.34;5068711;28;70162;-40
2022/09/24 06:35:09;;;;;;;2.90;2.35;;;;;;;30.63;55.89;100458.19;5071402;28;66727;-41
2022/09/24 06:37:42;;;;;;;2.42;2.22;;;;;;;30.65;55.31;100456.09;5071626;28;70034;-45
2022/09/24 06:40:15;;;;;;;1.92;1.83;;;;;;;30.65;55.17;100450.69;5074397;28;66434;-40
2022/09/24 06:42:51;;;;;;;2.47;2.10;;;;;;;30.63;54.81;100452.78;5064804;28;70042;-42
2022/09/24 06:45:25;;;;;;;2.72;2.13;;;;;;;30.62;54.45;100453.84;5067153;28;65918;-40
2022/09/24 06:47:59;;;;;;;2.40;2.20;;;;;;;30.14;54.60;100373.44;5069658;27;70704;-40
2022/09/24 06:50:34;;;;;;;3.38;2.20;;;;;;;30.52;54.07;100445.44;5064850;28;66741;-39
2022/09/24 06:53:07;;;;;;;2.40;2.20;;;;;;;30.58;54.03;100455.34;5067903;28;70284;-39
2022/09/24 06:55:41;;;;;;;2.97;1.90;;;;;;;30.59;54.16;100451.59;5082446;28;66974;-40
2022/09/24 06:58:16;;;;;;;1.73;1.63;;;;;;;30.13;53.83;100385.31;5069767;27;70711;-41
2022/09/24 07:00:53;;;;;;;2.10;2.00;;;;;;;30.10;53.62;100402.00;5078483;27;66894;-40
2022/09/24 07:03:27;;;;;;;2.10;1.90;;;;;;;30.54;54.25;100497.47;5080036;28;70895;-38
2022/09/24 07:06:02;;;;;;;2.42;2.20;;;;;;;30.51;54.08;100473.56;5077912;27;66077;-37
2022/09/24 07:08:34;;;;;;;4.28;1.90;;;;;;;30.48;54.16;100474.03;5077390;27;70692;-37
2022/09/24 07:11:07;;;;;;;4.60;1.95;;;;;;;30.49;53.92;100470.25;5080163;27;66513;-38
2022/09/24 07:13:40;;;;;;;2.60;1.77;;;;;;;30.47;53.67;100469.63;5079738;28;70214;-38
2022/09/24 07:16:13;;;;;;;2.28;1.60;;;;;;;30.43;53.78;100457.63;5078384;27;67105;-40
2022/09/24 07:18:45;;;;;;;7.05;1.80;;;;;;;30.48;54.25;100457.78;5079034;28;70493;-39
2022/09/24 07:21:18;;;;;;;1.70;1.60;;;;;;;30.39;53.20;100453.72;5079771;28;66774;-39
2022/09/24 07:23:50;;;;;;;2.05;1.75;;;;;;;30.38;52.89;100446.66;5079221;28;70463;-38
2022/09/24 07:26:29;;;;;;;1.80;1.70;;;;;;;30.38;52.75;100420.41;5080664;28;66316;-38
2022/09/24 07:29:02;;;;;;;1.52;1.42;;;;;;;30.38;52.90;100414.19;5079086;28;70902;-41
2022/09/24 07:31:35;;;;;;;5.30;2.53;;;;;;;30.36;60.27;100402.75;5080522;28;67073;-41
2022/09/24 07:34:08;;;;;;;3.20;2.80;;;;;;;30.42;60.24;100418.94;5079885;28;70106;-37
2022/09/24 07:36:41;;;;;;;3.28;2.90;;;;;;;30.42;59.27;100424.34;5079607;28;66907;-38
2022/09/24 07:39:15;;;;;;;3.03;2.55;;;;;;;30.44;57.98;100421.38;5074915;28;70185;-38
2022/09/24 07:41:47;;;;;;;2.88;2.60;;;;;;;30.38;57.26;100423.13;5079744;28;67179;-40
2022/09/24 07:44:24;;;;;;;4.57;2.55;;;;;;;30.30;56.57;100403.69;5079957;28;70855;-38
2022/09/24 07:46:57;;;;;;;2.58;2.38;;;;;;;30.32;56.25;100413.22;5061491;28;66364;-38
2022/09/24 07:49:31;;;;;;;4.60;2.65;;;;;;;30.28;55.88;100402.03;5079822;28;70772;-38
2022/09/24 07:52:04;;;;;;;4.07;2.45;;;;;;;30.32;55.00;100417.81;5077858;27;67218;-41
2022/09/24 07:54:37;;;;;;;3.03;2.55;;;;;;;30.28;54.14;100417.41;5080111;27;70954;-38
2022/09/24 07:57:14;;;;;;;3.90;2.50;;;;;;;30.34;57.84;100404.84;5076600;28;67704;-42
2022/09/24 07:59:47;;;;;;;5.75;2.95;;;;;;;30.42;58.08;100401.84;5077757;28;70128;-38
2022/09/24 08:02:20;;;;;;;3.10;2.80;;;;;;;30.47;57.70;100388.44;5077830;28;66743;-41
2022/09/24 08:04:53;;;;;;;2.75;2.55;;;;;;;30.59;58.30;100402.88;5079604;28;69995;-39
2022/09/24 08:07:26;;;;;;;2.92;2.63;;;;;;;30.56;58.30;100375.41;5079527;28;66898;-37
2022/09/24 08:10:01;;;;;;;3.97;2.60;;;;;;;30.69;58.61;100391.47;5074604;28;70823;-40
2022/09/24 08:12:34;;;;;;;2.88;2.65;;;;;;;30.71;59.38;100384.78;5077643;28;66877;-39
2022/09/24 08:15:07;;;;;;;2.90;2.70;;;;;;;30.78;59.58;100389.25;5078716;27;70627;-40
2022/09/24 08:17:40;;;;;;;4.15;2.72;;;;;;;30.82;59.86;100395.91;5079111;28;66676;-39
2022/09/24 08:20:13;;;;;;;3.20;2.90;;;;;;;30.84;60.14;100404.59;5078693;28;70834;-38
2022/09/24 08:22:46;;;;;;;3.15;2.72;;;;;;;30.87;59.98;100412.25;5080610;28;67613;-39
2022/09/24 08:25:18;;;;;;;4.40;2.70;;;;;;;30.84;60.64;100393.78;5080594;28;70477;-40
2022/09/24 08:27:51;;;;;;;3.40;3.17;;;;;;;30.93;60.60;100409.47;5072470;28;66467;-38
2022/09/24 08:30:23;;;;;;;3.50;3.30;;;;;;;30.82;61.79;100382.38;5080576;27;70209;-40
2022/09/24 08:32:57;;;;;;;3.67;3.38;;;;;;;30.90;62.06;100387.44;5070935;28;65890;-39
2022/09/24 08:35:30;;;;;;;3.65;3.45;;;;;;;30.96;62.04;100397.34;5071235;28;70582;-39
2022/09/24 08:38:03;;;;;;;5.40;3.83;;;;;;;31.01;62.54;100404.75;5075848;28;66965;-39
2022/09/24 08:40:54;;;;;;;4.03;3.53;;;;;;;30.94;62.06;100404.88;5068289;28;69750;-37
2022/09/24 08:43:46;;;;;;;5.85;3.42;;;;;;;30.98;62.30;100411.50;5075811;28;67110;-39
2022/09/24 08:49:57;;;;;;;4.03;3.63;;;;;;;30.96;62.41;100407.38;5070972;28;67260;-40
2022/09/24 08:52:42;;;;;;;3.53;3.33;;;;;;;30.99;62.63;100415.03;5072705;27;70063;-39
2022/09/24 08:55:20;;;;;;;4.00;3.70;;;;;;;30.96;62.08;100396.53;5065090;27;66888;-39
2022/09/24 08:58:37;;;;;;;3.45;3.25;;;;;;;30.87;62.57;100412.25;5079294;28;70823;-40
2022/09/24 09:01:38;;;;;;;7.45;3.90;;;;;;;30.58;63.24;100367.91;5070824;28;66359;-38
2022/09/24 09:04:13;;;;;;;7.85;3.85;;;;;;;31.07;64.10;100436.34;5080146;28;70922;-41
2022/09/24 09:07:13;;;;;;;4.35;4.03;;;;;;;31.00;64.43;100414.78;5069226;28;66848;-40
2022/09/24 09:09:59;;;;;;;4.57;4.13;;;;;;;31.10;64.53;100415.03;5075503;27;69240;-39
2022/09/24 09:12:56;;;;;;;4.63;4.25;;;;;;;31.01;64.96;100426.44;5076916;28;67148;-38
2022/09/24 09:15:33;;;;;;;4.30;3.97;;;;;;;31.13;64.72;100430.81;5073241;28;70840;-39
2022/09/24 09:18:21;;;;;;;14.65;3.72;;;;;;;31.12;65.27;100423.75;5075638;28;65960;-41
2022/09/24 09:21:05;;;;;;;4.20;3.80;;;;;;;30.34;65.00;100316.41;5075709;28;70926;-42
2022/09/24 09:23:51;;;;;;;4.60;4.07;;;;;;;30.78;64.95;100416.34;5077193;27;66929;-39
2022/09/24 09:26:26;;;;;;;4.90;4.60;;;;;;;31.18;65.93;100489.75;5078707;28;70659;-40
2022/09/24 09:29:00;;;;;;;14.40;4.50;;;;;;;30.97;66.05;100441.50;5074058;28;66334;-41
2022/09/24 09:32:06;;;;;;;8.55;4.90;;;;;;;31.15;66.65;100471.25;5074006;28;69265;-40
2022/09/24 09:35:10;;;;;;;10.77;6.30;;;;;;;31.14;69.00;100488.53;5044514;28;67057;-40
2022/09/24 09:37:52;;;;;;;6.68;6.18;;;;;;;31.24;69.07;100501.53;5070018;28;70478;-41
2022/09/24 09:40:39;;;;;;;6.50;6.05;;;;;;;31.02;70.12;100490.41;5069520;27;66503;-42
2022/09/24 09:43:13;;;;;;;8.60;6.47;;;;;;;31.30;70.33;100527.69;5076034;28;70494;-42
2022/09/24 09:46:01;;;;;;;8.27;6.85;;;;;;;31.29;70.38;100526.06;5078254;28;66179;-45
2022/09/24 09:48:46;;;;;;;8.10;6.32;;;;;;;30.81;70.61;100442.97;5068736;27;70054;-39
2022/09/24 09:51:20;;;;;;;14.02;6.03;;;;;;;30.87;70.65;100447.47;5077222;28;66395;-39
2022/09/24 09:53:58;;;;;;;10.20;6.78;;;;;;;30.88;71.02;100459.97;5070827;28;70847;-40
2022/09/24 09:56:35;;;;;;;11.07;6.20;;;;;;;31.28;71.70;100527.09;5075829;28;66515;-41
2022/09/24 09:59:18;;;;;;;14.30;7.28;;;;;;;31.08;71.69;100487.59;5054903;28;70905;-42
2022/09/24 10:01:57;;;;;;;11.45;7.30;;;;;;;31.33;71.61;100521.81;5075850;28;66938;-40
2022/09/24 10:04:40;;;;;;;6.40;5.80;;;;;;;31.27;71.84;100506.50;5070342;28;69804;-40
2022/09/24 10:07:16;;;;;;;8.98;7.10;;;;;;;31.11;71.59;100489.81;5070614;28;66814;-40
2022/09/24 10:10:18;;;;;;;8.50;7.32;;;;;;;30.83;71.72;100440.88;5078701;28;70164;-40
2022/09/24 10:13:09;;;;;;;6.78;6.20;;;;;;;31.38;69.81;100524.69;5071929;28;67031;-42
2022/09/24 10:15:53;;;;;;;5.55;5.10;;;;;;;31.52;69.64;100531.56;5074692;28;70036;-40
2022/09/24 10:18:43;;;;;;;5.40;4.57;;;;;;;31.31;69.19;100485.97;5071188;27;66858;-40
2022/09/24 10:21:36;;;;;;;6.97;5.30;;;;;;;31.37;68.84;100495.91;5072746;28;70343;-42
2022/09/24 10:24:18;;;;;;;4.75;4.32;;;;;;;31.30;68.19;100468.09;5076097;27;67027;-40
2022/09/24 10:26:52;;;;;;;5.35;4.88;;;;;;;31.13;67.92;100428.13;5074483;28;71104;-41
2022/09/24 10:32:25;;;;;;;5.57;5.18;;;;;;;31.76;67.74;100521.56;5077540;28;70455;-41
2022/09/24 10:35:17;;;;;;;7.30;5.40;;;;;;;31.47;70.19;100512.44;5078026;28;67185;-40
2022/09/24 10:37:55;;;;;;;6.35;5.75;;;;;;;31.42;70.85;100509.59;5078179;27;70680;-40
2022/09/24 10:40:37;;;;;;;6.75;5.82;;;;;;;31.40;71.47;100503.63;5076189;28;67012;-40
2022/09/24 10:43:19;;;;;;;6.22;5.70;;;;;;;30.79;71.42;100407.16;5079925;28;70246;-40
2022/09/24 10:46:03;;;;;;;5.40;5.00;;;;;;;31.21;71.66;100496.59;5078191;28;66179;-42
2022/09/24 10:49:08;;;;;;;16.25;6.93;;;;;;;31.19;72.17;100487.84;5076423;28;70797;-41
2022/09/24 10:51:58;;;;;;;6.90;6.40;;;;;;;31.25;72.22;100498.59;5074865;28;65649;-39
2022/09/24 10:55:13;;;;;;;9.15;6.07;;;;;;;31.14;72.81;100497.50;5077073;28;70652;-42
2022/09/24 10:58:03;;;;;;;7.93;6.32;;;;;;;31.21;72.48;100502.00;5075423;28;66150;-41
2022/09/24 11:00:39;;;;;;;6.30;5.70;;;;;;;31.20;72.76;100505.75;5073613;28;70061;-42
2022/09/24 11:03:55;;;;;;;6.22;5.72;;;;;;;31.02;72.72;100512.88;5073754;27;67375;-41
2022/09/24 11:07:00;;;;;;;7.25;5.63;;;;;;;31.09;72.47;100515.50;5023176;28;71297;-40
2022/09/24 11:09:39;;;;;;;7.05;6.55;;;;;;;31.13;72.83;100514.81;5020523;28;67005;-40
2022/09/24 11:12:18;;;;;;;6.55;5.93;;;;;;;31.13;72.85;100516.69;5069150;28;70550;-43
2022/09/24 11:15:13;;;;;;;10.48;6.63;;;;;;;31.07;73.56;100526.56;5078172;28;66843;-40
2022/09/24 11:18:14;;;;;;;7.68;6.90;;;;;;;30.71;73.34;100476.00;5062149;27;70590;-40
2022/09/24 11:21:23;;;;;;;7.43;6.70;;;;;;;30.94;72.40;100543.81;5071480;28;67260;-40
2022/09/24 11:24:32;;;;;;;8.73;6.60;;;;;;;30.80;70.47;100528.00;5071674;27;70093;-40
2022/09/24 11:27:30;;;;;;;7.90;5.60;;;;;;;30.76;68.65;100543.84;5073474;28;66872;-40
2022/09/24 11:30:17;;;;;;;6.40;5.80;;;;;;;30.72;67.58;100575.94;5069684;28;70769;-40
2022/09/24 11:33:02;;;;;;;6.25;5.75;;;;;;;30.66;66.99;100563.31;5074335;27;67048;-42
2022/09/24 11:35:55;;;;;;;5.72;5.13;;;;;;;30.57;65.63;100556.56;5074263;28;69364;-39
2022/09/24 11:39:00;;;;;;;5.47;5.00;;;;;;;30.47;64.93;100556.25;5080922;27;67392;-39
2022/09/24 11:41:39;;;;;;;5.93;5.40;;;;;;;30.54;64.28;100561.59;5078256;27;70861;-39
2022/09/24 11:44:42;;;;;;;8.63;5.43;;;;;;;30.43;64.13;100568.59;5071259;27;66830;-39
2022/09/24 11:47:26;;;;;;;6.40;5.78;;;;;;;30.43;63.03;100577.53;5073119;27;70794;-39
2022/09/24 11:50:03;;;;;;;6.47;5.88;;;;;;;30.41;62.43;100567.97;5069724;27;66526;-38
2022/09/24 11:52:47;;;;;;;5.97;5.47;;;;;;;30.35;61.75;100574.28;5077721;28;70989;-42
2022/09/24 11:55:39;;;;;;;6.13;5.63;;;;;;;30.28;63.79;100571.63;5078641;27;66343;-38
2022/09/24 11:58:15;;;;;;;6.40;5.90;;;;;;;30.27;63.41;100583.53;5067808;28;71112;-40
2022/09/24 12:01:14;;;;;;;6.70;6.20;;;;;;;29.75;63.77;100502.63;5071659;28;66988;-37
2022/09/24 12:04:10;;;;;;;8.75;6.18;;;;;;;30.16;62.68;100592.34;5067342;28;71592;-37
2022/09/24 12:07:15;;;;;;;6.47;5.88;;;;;;;30.16;62.45;100598.56;5074668;27;66502;-39
2022/09/24 12:10:31;;;;;;;7.32;6.78;;;;;;;30.02;66.50;100603.28;5073382;28;70877;-39
2022/09/24 12:13:17;;;;;;;7.60;6.90;;;;;;;30.08;64.92;100601.56;5036660;28;66831;-39
2022/09/24 12:16:13;;;;;;;12.68;7.05;;;;;;;29.50;64.17;100528.78;5069562;27;70820;-37
2022/09/24 12:19:03;;;;;;;7.53;6.88;;;;;;;30.03;63.63;100637.41;5076712;28;67138;-37
2022/09/24 12:21:42;;;;;;;7.22;6.53;;;;;;;29.58;62.68;100566.38;5073309;27;70585;-38
2022/09/24 12:24:28;;;;;;;7.30;6.50;;;;;;;30.05;61.57;100650.69;5076218;27;66974;-39
2022/09/24 12:27:12;;;;;;;8.82;7.03;;;;;;;30.14;62.65;100671.00;5078883;27;70614;-37
2022/09/24 12:33:21;;;;;;;131.55;14.23;;;;;;;30.34;62.68;100664.63;5071074;28;70528;-39
2022/09/24 12:36:05;;;;;;;63.38;10.95;;;;;;;30.36;62.80;100674.19;5073170;27;67004;-38